Time;durP1;ratioP1;P1;durP2;ratioP2;P2;SDS_P1;SDS_P2;PMS_P1;PMS_P2;Temp;Humidity;BMP_temperature;BMP_pressure;BME280_temperature;BME280_humidity;BME280_pressure;Samples;Min_cycle;Max_cycle;Signal;HPM_P1;HPM_P2
2022/05/05 00:02:20;;;;;;;10.70;7.97;;;15.20;99.60;;;;;;5047367;28;20122;-80
2022/05/05 00:04:46;;;;;;;10.13;8.35;;;15.20;99.60;;;;;;5035075;28;20033;-83
2022/05/05 00:07:11;;;;;;;10.80;8.75;;;15.20;99.60;;;;;;5049217;28;20431;-81
2022/05/05 00:09:37;;;;;;;11.23;9.18;;;15.10;99.80;;;;;;5064944;28;20036;-82
2022/05/05 00:14:47;;;;;;;13.98;9.30;;;15.10;99.80;;;;;;5050757;28;20031;-86
2022/05/05 00:17:13;;;;;;;12.23;9.10;;;15.00;99.90;;;;;;5061844;28;20036;-80
2022/05/05 00:19:41;;;;;;;15.20;9.85;;;15.00;99.90;;;;;;5047175;28;20040;-84
2022/05/05 00:22:08;;;;;;;13.93;8.75;;;15.00;99.80;;;;;;5047553;28;20072;-85
2022/05/05 00:24:33;;;;;;;10.77;8.10;;;14.90;99.90;;;;;;5040675;28;20429;-81
2022/05/05 00:27:00;;;;;;;13.90;9.50;;;14.90;99.90;;;;;;5045012;28;20159;-81
2022/05/05 00:29:25;;;;;;;17.20;9.52;;;14.80;99.90;;;;;;5045217;28;20021;-81
2022/05/05 00:31:51;;;;;;;11.65;8.95;;;14.70;99.90;;;;;;5061542;28;20457;-81
2022/05/05 00:34:17;;;;;;;12.40;9.45;;;14.70;99.90;;;;;;5050281;28;20071;-83
2022/05/05 00:36:43;;;;;;;15.35;8.98;;;14.80;99.90;;;;;;5046199;28;20035;-85
2022/05/05 00:39:13;;;;;;;15.57;9.40;;;14.80;99.90;;;;;;5045332;28;20032;-81
2022/05/05 00:41:46;;;;;;;12.05;8.93;;;14.80;99.90;;;;;;5037164;28;20163;-83
2022/05/05 00:44:14;;;;;;;13.75;9.70;;;14.80;99.90;;;;;;5040173;28;20514;-81
2022/05/05 00:46:39;;;;;;;16.67;9.23;;;14.80;99.90;;;;;;5054787;28;20175;-80
2022/05/05 00:49:05;;;;;;;14.65;9.65;;;14.80;99.90;;;;;;5039250;28;20533;-81
2022/05/05 00:51:31;;;;;;;12.52;8.68;;;14.80;99.90;;;;;;5039063;28;20392;-82
2022/05/05 00:53:57;;;;;;;14.88;8.35;;;14.80;99.90;;;;;;5041162;28;20028;-82
2022/05/05 00:56:24;;;;;;;14.52;9.57;;;14.80;99.90;;;;;;5031999;28;20029;-82
2022/05/05 00:58:52;;;;;;;13.98;9.20;;;14.80;99.90;;;;;;5060969;28;20479;-81
2022/05/05 01:01:19;;;;;;;12.57;9.60;;;14.90;99.90;;;;;;5055135;28;20032;-83
2022/05/05 01:03:45;;;;;;;14.30;9.30;;;14.90;99.90;;;;;;5058098;28;20056;-82
2022/05/05 01:06:13;;;;;;;12.48;9.05;;;14.90;99.90;;;;;;5049111;28;20021;-81
2022/05/05 01:08:39;;;;;;;13.57;9.23;;;14.90;99.90;;;;;;5039354;28;20033;-84
2022/05/05 01:11:05;;;;;;;18.48;10.85;;;14.90;99.80;;;;;;5041150;28;20029;-83
2022/05/05 01:13:31;;;;;;;14.02;10.55;;;15.00;99.90;;;;;;5044548;28;20029;-82
2022/05/05 01:15:57;;;;;;;16.42;10.20;;;15.00;99.90;;;;;;5043076;28;20035;-80
2022/05/05 01:18:23;;;;;;;14.50;9.70;;;15.00;99.90;;;;;;5063157;28;20040;-80
2022/05/05 01:20:54;;;;;;;13.02;10.43;;;14.90;99.90;;;;;;5060844;28;20039;-81
2022/05/05 01:23:21;;;;;;;18.63;11.07;;;14.90;99.90;;;;;;5050811;28;20017;-79
2022/05/05 01:28:33;;;;;;;14.65;10.55;;;14.90;99.90;;;;;;5058378;28;20099;-81
2022/05/05 01:30:59;;;;;;;16.55;10.95;;;14.80;99.90;;;;;;5048091;28;20045;-84
2022/05/05 01:33:26;;;;;;;16.08;10.50;;;14.80;99.90;;;;;;5051660;28;20104;-82
2022/05/05 01:35:57;;;;;;;15.80;10.80;;;14.80;99.90;;;;;;5041623;28;20033;-81
2022/05/05 01:38:28;;;;;;;14.38;10.80;;;14.80;99.90;;;;;;5032615;28;20025;-82
2022/05/05 01:40:53;;;;;;;16.30;10.98;;;14.80;99.90;;;;;;5032206;28;20471;-82
2022/05/05 01:43:21;;;;;;;18.70;10.63;;;14.80;99.90;;;;;;5043038;28;20032;-81
2022/05/05 01:45:47;;;;;;;15.73;10.68;;;14.80;99.90;;;;;;5040933;28;20104;-80
2022/05/05 01:48:13;;;;;;;15.07;10.80;;;14.80;99.90;;;;;;5041793;28;20021;-80
2022/05/05 01:50:39;;;;;;;15.63;10.85;;;14.70;99.90;;;;;;5044786;28;20037;-82
2022/05/05 01:53:05;;;;;;;19.90;11.63;;;14.70;99.90;;;;;;5051626;28;20031;-82
2022/05/05 01:55:32;;;;;;;16.95;11.55;;;14.70;99.90;;;;;;5037064;28;20513;-83
2022/05/05 01:57:58;;;;;;;15.20;11.52;;;14.70;99.90;;;;;;5061288;28;20369;-80
2022/05/05 02:00:24;;;;;;;20.33;11.95;;;14.70;99.90;;;;;;5049816;28;20029;-86
2022/05/05 02:02:50;;;;;;;16.27;11.85;;;14.70;99.90;;;;;;5040970;28;20097;-80
2022/05/05 02:05:16;;;;;;;16.80;11.82;;;14.60;99.90;;;;;;5039868;28;20076;-84
2022/05/05 02:07:43;;;;;;;15.77;11.68;;;14.60;99.90;;;;;;5046117;28;20071;-82
2022/05/05 02:10:12;;;;;;;20.20;12.18;;;14.50;99.90;;;;;;5048797;28;20033;-82
2022/05/05 02:12:38;;;;;;;14.55;11.27;;;14.50;99.90;;;;;;5058204;28;20059;-82
2022/05/05 02:15:06;;;;;;;24.13;12.95;;;14.50;99.90;;;;;;5057173;28;20033;-80
2022/05/05 02:17:34;;;;;;;18.40;12.25;;;14.50;99.90;;;;;;5064270;28;20021;-81
2022/05/05 02:20:00;;;;;;;16.48;11.75;;;14.50;99.90;;;;;;5048965;28;20033;-80
2022/05/05 02:22:26;;;;;;;12.32;11.02;;;14.50;99.90;;;;;;5047455;28;20025;-80
2022/05/05 02:24:52;;;;;;;15.40;11.68;;;14.50;99.90;;;;;;5050796;28;20021;-80
2022/05/05 02:27:18;;;;;;;18.58;12.77;;;14.60;99.90;;;;;;5033483;28;20033;-81
2022/05/05 02:29:44;;;;;;;16.00;12.07;;;14.50;99.90;;;;;;5046364;28;20117;-82
2022/05/05 02:32:09;;;;;;;14.63;11.50;;;14.50;99.90;;;;;;5057039;28;20459;-81
2022/05/05 02:34:35;;;;;;;17.70;12.63;;;14.50;99.90;;;;;;5030754;28;20033;-83
2022/05/05 02:39:44;;;;;;;19.27;12.88;;;14.40;99.90;;;;;;5034121;28;20078;-83
2022/05/05 02:42:10;;;;;;;16.85;12.80;;;14.40;99.90;;;;;;5042937;28;20041;-84
2022/05/05 02:44:35;;;;;;;20.50;11.38;;;14.30;99.90;;;;;;5051184;28;20423;-87
2022/05/05 02:47:01;;;;;;;16.65;12.45;;;14.20;99.90;;;;;;5044851;28;20079;-83
2022/05/05 02:49:29;;;;;;;19.65;13.35;;;14.20;99.90;;;;;;5036160;28;20025;-81
2022/05/05 02:51:55;;;;;;;18.98;12.35;;;14.20;99.90;;;;;;5041214;28;20111;-80
2022/05/05 02:57:05;;;;;;;18.80;13.05;;;14.30;99.90;;;;;;5044987;28;20051;-81
2022/05/05 02:59:30;;;;;;;18.55;13.15;;;14.30;99.90;;;;;;5045695;28;20016;-81
2022/05/05 03:01:56;;;;;;;16.75;13.95;;;14.30;99.90;;;;;;5054695;28;20488;-81
2022/05/05 03:04:21;;;;;;;21.65;13.20;;;14.30;99.90;;;;;;5042345;28;20106;-80
2022/05/05 03:06:47;;;;;;;18.58;13.38;;;14.30;99.90;;;;;;5036636;28;20450;-81
2022/05/05 03:09:12;;;;;;;16.52;13.10;;;14.30;99.90;;;;;;5051677;28;20033;-81
2022/05/05 03:11:39;;;;;;;17.95;12.85;;;14.20;99.90;;;;;;5055635;28;20524;-82
2022/05/05 03:14:05;;;;;;;19.48;12.68;;;14.10;99.90;;;;;;5050335;28;20045;-83
2022/05/05 03:16:31;;;;;;;15.95;12.27;;;14.10;99.90;;;;;;5043490;28;20036;-82
2022/05/05 03:18:57;;;;;;;19.92;12.65;;;14.10;99.90;;;;;;5038353;28;20044;-86
2022/05/05 03:21:22;;;;;;;19.35;13.85;;;14.10;99.90;;;;;;5045977;28;20473;-82
2022/05/05 03:23:47;;;;;;;19.50;13.13;;;14.10;99.90;;;;;;5043630;28;20371;-82
2022/05/05 03:26:13;;;;;;;19.10;13.75;;;14.10;99.90;;;;;;5038982;28;20072;-87
2022/05/05 03:28:39;;;;;;;19.42;13.50;;;14.10;99.90;;;;;;5058004;28;20466;-84
2022/05/05 03:31:06;;;;;;;20.50;12.77;;;14.10;99.90;;;;;;5045620;28;20033;-81
2022/05/05 03:33:32;;;;;;;17.85;13.05;;;14.10;99.90;;;;;;5056253;28;20017;-82
2022/05/05 03:35:57;;;;;;;17.42;13.05;;;14.10;99.90;;;;;;5045306;28;20112;-82
2022/05/05 03:38:23;;;;;;;19.50;13.50;;;14.10;99.90;;;;;;5045191;28;20132;-81
2022/05/05 03:40:50;;;;;;;19.10;12.68;;;14.10;99.90;;;;;;5048742;28;20059;-84
2022/05/05 03:43:16;;;;;;;18.52;12.73;;;14.10;99.90;;;;;;5052052;28;20025;-81
2022/05/05 03:45:41;;;;;;;21.48;13.38;;;14.00;99.90;;;;;;5046204;28;20048;-81
2022/05/05 03:48:08;;;;;;;19.45;13.05;;;14.10;99.90;;;;;;5058393;28;20065;-86
2022/05/05 03:50:33;;;;;;;19.58;12.82;;;14.10;99.90;;;;;;5046145;28;20075;-82
2022/05/05 03:52:58;;;;;;;21.58;14.13;;;14.10;99.90;;;;;;5041955;28;20034;-81
2022/05/05 03:55:24;;;;;;;18.08;12.85;;;14.00;99.90;;;;;;5052444;28;20201;-82
2022/05/05 03:57:50;;;;;;;19.42;12.65;;;14.10;99.90;;;;;;5039452;28;20033;-87
2022/05/05 04:00:20;;;;;;;22.45;12.80;;;14.10;99.90;;;;;;5042041;28;20048;-81
2022/05/05 04:03:30;;;;;;;17.13;13.10;;;14.10;99.90;;;;;;5059972;28;20053;-81
2022/05/05 04:05:31;;;;;;;18.83;11.70;;;14.10;99.90;;;;;;5054038;28;20031;-81
2022/05/05 04:07:57;;;;;;;16.08;12.05;;;14.10;99.90;;;;;;5052404;28;20024;-82
2022/05/05 04:10:22;;;;;;;15.55;12.07;;;14.10;99.90;;;;;;5062340;28;20024;-80
2022/05/05 04:12:48;;;;;;;15.48;11.13;;;14.10;99.90;;;;;;5040084;28;20036;-79
2022/05/05 04:15:13;;;;;;;16.00;12.20;;;14.10;99.90;;;;;;5041785;28;20021;-81
2022/05/05 04:17:38;;;;;;;14.55;10.90;;;14.10;99.90;;;;;;5054321;28;20064;-83
2022/05/05 04:20:04;;;;;;;21.30;12.55;;;14.20;99.90;;;;;;5058566;28;20111;-81
2022/05/05 04:22:30;;;;;;;13.55;11.10;;;14.20;99.90;;;;;;5050006;28;20029;-82
2022/05/05 04:24:56;;;;;;;19.17;10.93;;;14.20;99.90;;;;;;5057416;28;20040;-82
2022/05/05 04:27:21;;;;;;;13.63;10.25;;;14.20;99.90;;;;;;5052475;28;20017;-85
2022/05/05 04:29:47;;;;;;;17.27;10.68;;;14.30;99.90;;;;;;5049182;28;20025;-81
2022/05/05 04:32:13;;;;;;;15.57;11.85;;;14.30;99.90;;;;;;5066066;28;20416;-80
2022/05/05 04:34:39;;;;;;;16.38;10.75;;;14.20;99.90;;;;;;5054827;28;20029;-84
2022/05/05 04:37:05;;;;;;;12.35;10.20;;;14.20;99.90;;;;;;5044995;28;20497;-83
2022/05/05 04:39:31;;;;;;;19.20;11.13;;;14.20;99.90;;;;;;5043305;28;20338;-80
2022/05/05 04:41:57;;;;;;;17.55;11.52;;;14.20;99.90;;;;;;5054382;28;20035;-79
2022/05/05 04:44:23;;;;;;;15.43;10.05;;;14.20;99.90;;;;;;5051148;28;20028;-81
2022/05/05 04:46:48;;;;;;;15.05;10.52;;;14.10;99.90;;;;;;5040003;28;20053;-79
2022/05/05 04:49:14;;;;;;;14.77;11.00;;;14.20;99.90;;;;;;5045692;28;20462;-80
2022/05/05 04:51:39;;;;;;;16.13;10.30;;;14.20;99.90;;;;;;5042192;28;20040;-82
2022/05/05 04:54:05;;;;;;;18.45;11.52;;;14.10;99.90;;;;;;5056969;28;20113;-81
2022/05/05 04:56:30;;;;;;;20.00;11.60;;;14.10;99.90;;;;;;5053484;28;20017;-81
2022/05/05 04:58:56;;;;;;;15.30;10.98;;;14.10;99.90;;;;;;5039830;28;20433;-81
2022/05/05 05:01:21;;;;;;;14.20;10.38;;;14.10;99.90;;;;;;5027960;28;20060;-80
2022/05/05 05:03:47;;;;;;;14.75;10.75;;;14.10;99.90;;;;;;5039375;28;20041;-81
2022/05/05 05:06:12;;;;;;;14.48;10.20;;;14.10;99.90;;;;;;5035163;28;20025;-81
2022/05/05 05:08:38;;;;;;;18.90;11.85;;;14.20;99.90;;;;;;5048536;28;20028;-81
2022/05/05 05:11:05;;;;;;;22.23;11.73;;;14.20;99.90;;;;;;5048181;28;20037;-81
2022/05/05 05:13:31;;;;;;;12.82;9.75;;;14.20;99.90;;;;;;5047238;28;20035;-80
2022/05/05 05:15:56;;;;;;;16.25;10.23;;;14.20;99.90;;;;;;5035214;28;20246;-81
2022/05/05 05:18:22;;;;;;;13.05;10.15;;;14.30;99.90;;;;;;5036870;28;20025;-79
2022/05/05 05:20:48;;;;;;;18.05;11.38;;;14.30;99.90;;;;;;5040499;28;20026;-81
2022/05/05 05:23:13;;;;;;;18.40;10.63;;;14.30;99.90;;;;;;5032529;28;20479;-84
2022/05/05 05:25:39;;;;;;;16.17;10.40;;;14.40;99.90;;;;;;5045242;28;20064;-80
2022/05/05 05:28:05;;;;;;;16.02;10.50;;;14.30;99.90;;;;;;5041538;28;20017;-84
2022/05/05 05:30:30;;;;;;;13.35;9.95;;;14.30;99.90;;;;;;5033734;28;20037;-82
2022/05/05 05:32:56;;;;;;;15.25;9.90;;;14.40;99.90;;;;;;5034215;28;20060;-81
2022/05/05 05:35:22;;;;;;;16.88;10.95;;;14.30;99.90;;;;;;5040573;28;20021;-84
2022/05/05 05:37:49;;;;;;;14.35;10.13;;;14.30;99.90;;;;;;5052019;28;20029;-81
2022/05/05 05:40:15;;;;;;;15.70;11.20;;;14.20;99.90;;;;;;5048909;28;20590;-83
2022/05/05 05:42:40;;;;;;;14.73;9.65;;;14.20;99.90;;;;;;5050394;28;20033;-83
2022/05/05 05:45:08;;;;;;;15.60;10.32;;;14.10;99.90;;;;;;5046465;28;20108;-79
2022/05/05 05:47:33;;;;;;;12.80;9.82;;;14.20;99.90;;;;;;5035808;28;20128;-82
2022/05/05 05:49:59;;;;;;;14.13;9.35;;;14.20;99.90;;;;;;5046117;28;20104;-80
2022/05/05 05:52:24;;;;;;;13.07;9.35;;;14.20;99.90;;;;;;5037087;28;20056;-79
2022/05/05 05:54:49;;;;;;;14.38;10.18;;;14.30;99.90;;;;;;5043307;28;20468;-78
2022/05/05 05:57:15;;;;;;;13.60;9.68;;;14.30;99.90;;;;;;5032592;28;20025;-81
2022/05/05 05:59:41;;;;;;;13.40;9.63;;;14.40;99.90;;;;;;5049945;28;20021;-81
2022/05/05 06:04:50;;;;;;;13.13;8.57;;;14.50;99.90;;;;;;5034149;28;20028;-78
2022/05/05 06:07:17;;;;;;;12.82;8.60;;;14.70;99.90;;;;;;5039762;28;20025;-79
2022/05/05 06:09:42;;;;;;;15.23;7.93;;;14.90;99.90;;;;;;5045013;28;20039;-82
2022/05/05 06:12:09;;;;;;;10.43;7.78;;;15.00;99.90;;;;;;5029687;28;20041;-79
2022/05/05 06:14:34;;;;;;;11.68;9.18;;;15.20;99.80;;;;;;5041381;28;20098;-80
2022/05/05 06:17:00;;;;;;;10.00;7.10;;;15.30;99.30;;;;;;5028737;28;20442;-79
2022/05/05 06:19:25;;;;;;;10.60;7.32;;;15.50;98.20;;;;;;5039045;28;20048;-78
2022/05/05 06:21:51;;;;;;;12.90;7.53;;;15.60;98.10;;;;;;5041861;28;20021;-80
2022/05/05 06:24:16;;;;;;;10.02;7.70;;;15.80;97.90;;;;;;5046282;28;20512;-79
2022/05/05 06:26:42;;;;;;;10.95;7.90;;;15.90;97.80;;;;;;5033585;28;20458;-78
2022/05/05 06:29:07;;;;;;;9.68;7.07;;;15.90;97.50;;;;;;5038186;28;20033;-84
2022/05/05 06:31:33;;;;;;;9.60;7.03;;;15.90;97.30;;;;;;5049043;28;20025;-79
2022/05/05 06:33:58;;;;;;;13.02;6.70;;;15.80;97.40;;;;;;5047652;28;20041;-79
2022/05/05 06:36:24;;;;;;;10.45;7.03;;;15.70;97.40;;;;;;5028972;28;20119;-80
2022/05/05 06:38:53;;;;;;;10.23;7.82;;;15.70;97.50;;;;;;5044389;28;20025;-83
2022/05/05 06:41:20;;;;;;;11.88;7.53;;;15.70;97.70;;;;;;5043526;28;20521;-81
2022/05/05 06:43:45;;;;;;;13.57;8.20;;;15.70;97.70;;;;;;5049855;28;20060;-79
2022/05/05 06:46:11;;;;;;;11.02;7.53;;;15.70;97.90;;;;;;5046396;28;20627;-79
2022/05/05 06:48:36;;;;;;;10.55;7.85;;;15.80;97.80;;;;;;5027706;28;20036;-79
2022/05/05 06:51:02;;;;;;;10.02;7.53;;;15.80;97.70;;;;;;5040090;28;20029;-80
2022/05/05 06:53:27;;;;;;;11.52;7.07;;;15.90;98.20;;;;;;5045051;28;20036;-80
2022/05/05 06:55:55;;;;;;;8.60;6.32;;;16.00;97.00;;;;;;5040642;28;20029;-79
2022/05/05 06:58:22;;;;;;;12.82;6.72;;;16.10;97.30;;;;;;5027532;28;20026;-81
2022/05/05 07:03:31;;;;;;;8.75;6.32;;;16.30;97.30;;;;;;5043567;28;20083;-78
2022/05/05 07:05:57;;;;;;;10.02;6.22;;;16.30;96.70;;;;;;5037376;28;20034;-83
2022/05/05 07:08:22;;;;;;;7.22;5.35;;;16.40;97.00;;;;;;5046430;28;20027;-82
2022/05/05 07:10:54;;;;;;;11.57;5.90;;;16.40;96.60;;;;;;5047271;28;20474;-81
2022/05/05 07:13:24;;;;;;;7.60;5.57;;;16.50;96.30;;;;;;5049642;28;20686;-78
2022/05/05 07:15:50;;;;;;;8.48;5.32;;;16.50;96.00;;;;;;5066014;28;20078;-80
2022/05/05 07:18:16;;;;;;;7.78;4.95;;;16.40;95.40;;;;;;5073585;28;20024;-79
2022/05/05 07:20:42;;;;;;;10.02;5.55;;;16.50;95.60;;;;;;5069227;28;20013;-79
2022/05/05 07:23:12;;;;;;;10.50;5.70;;;16.50;95.80;;;;;;5043263;28;20038;-82
2022/05/05 07:25:40;;;;;;;9.43;6.30;;;16.60;96.20;;;;;;5034988;28;20441;-79
2022/05/05 07:28:06;;;;;;;7.38;5.28;;;16.70;95.80;;;;;;5043447;28;20052;-80
2022/05/05 07:30:33;;;;;;;8.23;5.25;;;16.80;96.00;;;;;;5048374;28;20021;-79
2022/05/05 07:32:59;;;;;;;8.93;5.30;;;16.90;95.20;;;;;;5047763;28;20021;-78
2022/05/05 07:35:24;;;;;;;7.75;5.07;;;17.10;94.80;;;;;;5047376;28;20355;-78
2022/05/05 07:37:50;;;;;;;10.52;5.32;;;17.20;94.80;;;;;;5047911;28;20036;-79
2022/05/05 07:40:16;;;;;;;14.75;6.10;;;17.20;93.90;;;;;;5047712;28;20021;-78
2022/05/05 07:42:42;;;;;;;6.55;5.45;;;17.40;93.90;;;;;;5047792;28;20032;-76
2022/05/05 07:45:08;;;;;;;7.57;5.55;;;17.50;93.90;;;;;;5046922;28;20031;-77
2022/05/05 07:47:34;;;;;;;6.15;4.63;;;17.60;94.10;;;;;;5047941;28;20029;-77
2022/05/05 07:50:01;;;;;;;8.32;5.32;;;17.70;93.60;;;;;;5039950;28;20033;-81
2022/05/05 07:52:26;;;;;;;9.88;6.05;;;17.80;94.30;;;;;;5044136;28;20052;-83
2022/05/05 07:54:53;;;;;;;8.65;5.15;;;17.90;94.00;;;;;;5036089;28;20103;-80
2022/05/05 07:57:20;;;;;;;14.00;6.47;;;18.00;93.00;;;;;;5046400;28;20030;-80
2022/05/05 07:59:46;;;;;;;9.50;5.85;;;18.00;92.80;;;;;;5041033;28;20101;-82
2022/05/05 08:02:14;;;;;;;8.60;4.45;;;18.00;92.90;;;;;;5027714;28;20056;-81
2022/05/05 08:04:40;;;;;;;9.10;5.22;;;18.10;93.30;;;;;;5041586;28;20767;-81
2022/05/05 08:07:06;;;;;;;6.90;6.13;;;18.00;92.40;;;;;;5038918;28;20018;-83
2022/05/05 08:09:32;;;;;;;6.80;5.15;;;18.10;93.00;;;;;;5035616;28;20614;-81
2022/05/05 08:11:59;;;;;;;8.90;4.88;;;18.40;92.70;;;;;;5051156;28;20100;-81
2022/05/05 08:14:26;;;;;;;8.13;5.00;;;18.60;92.10;;;;;;5049115;28;20354;-83
2022/05/05 08:16:52;;;;;;;7.03;4.78;;;18.70;91.30;;;;;;5032859;28;20030;-81
2022/05/05 08:19:18;;;;;;;9.27;5.25;;;18.80;91.50;;;;;;5033294;28;20021;-82
2022/05/05 08:21:43;;;;;;;9.82;5.82;;;18.80;91.20;;;;;;5034609;28;20025;-81
2022/05/05 08:29:37;;;;;;;8.32;5.57;;;18.60;91.10;;;;;;5052163;28;20094;-82
2022/05/05 08:32:03;;;;;;;9.98;6.93;;;18.60;91.70;;;;;;5051506;28;20037;-81
2022/05/05 08:34:28;;;;;;;9.43;6.93;;;18.40;92.40;;;;;;5051819;28;20485;-80
2022/05/05 08:36:54;;;;;;;11.50;7.72;;;18.20;92.70;;;;;;5049464;28;20025;-81
2022/05/05 08:39:20;;;;;;;8.27;6.32;;;18.30;92.90;;;;;;5050935;28;20024;-80
2022/05/05 08:41:46;;;;;;;14.23;7.30;;;18.30;92.90;;;;;;5051246;28;20037;-80
2022/05/05 08:44:12;;;;;;;9.48;7.03;;;18.30;92.80;;;;;;5050861;28;20630;-82
2022/05/05 08:46:39;;;;;;;9.57;6.50;;;18.40;93.60;;;;;;5050525;28;20108;-81
2022/05/05 08:49:06;;;;;;;11.13;6.40;;;18.40;93.00;;;;;;5050817;28;20025;-80
2022/05/05 08:51:44;;;;;;;14.93;6.57;;;18.60;92.30;;;;;;5051298;28;20025;-79
2022/05/05 08:54:19;;;;;;;11.13;6.88;;;18.60;92.00;;;;;;5050577;28;20032;-81
2022/05/05 08:56:48;;;;;;;11.40;6.40;;;18.80;91.50;;;;;;5048745;28;20056;-80
2022/05/05 08:59:14;;;;;;;8.57;6.20;;;18.70;91.00;;;;;;5049057;28;20062;-80
2022/05/05 09:01:40;;;;;;;9.27;6.53;;;18.70;91.40;;;;;;5047295;28;20087;-80
2022/05/05 09:04:07;;;;;;;10.50;7.00;;;18.90;91.50;;;;;;5050726;28;20735;-80
2022/05/05 09:06:44;;;;;;;9.65;6.70;;;19.00;91.40;;;;;;5037278;28;20022;-80
2022/05/05 09:09:30;;;;;;;9.68;6.22;;;19.20;90.70;;;;;;5033073;28;20053;-82
2022/05/05 09:12:12;;;;;;;12.30;7.60;;;19.30;90.50;;;;;;5043852;28;20048;-82
2022/05/05 09:14:39;;;;;;;9.10;6.22;;;19.40;88.80;;;;;;5038788;28;20465;-82
2022/05/05 09:17:06;;;;;;;9.43;6.82;;;19.40;89.70;;;;;;5049755;28;20710;-81
2022/05/05 09:19:36;;;;;;;9.45;6.50;;;19.30;90.00;;;;;;5050338;28;20020;-81
2022/05/05 09:22:03;;;;;;;9.63;6.20;;;19.30;90.30;;;;;;5049991;28;20017;-79
2022/05/05 09:24:35;;;;;;;9.43;5.97;;;19.30;88.90;;;;;;5050092;28;20049;-79
2022/05/05 09:27:18;;;;;;;9.82;5.97;;;19.30;90.00;;;;;;5051095;28;20108;-81
2022/05/05 09:30:00;;;;;;;8.70;6.20;;;19.30;87.90;;;;;;5046861;28;20033;-81
2022/05/05 09:32:30;;;;;;;9.07;5.85;;;19.40;88.90;;;;;;5029426;28;20091;-80
2022/05/05 09:34:58;;;;;;;11.80;6.30;;;19.60;90.10;;;;;;5031435;28;20042;-81
2022/05/05 09:37:24;;;;;;;10.25;6.07;;;19.90;87.60;;;;;;5038785;28;20049;-80
2022/05/05 09:39:57;;;;;;;12.52;6.13;;;20.10;85.20;;;;;;5049957;28;20064;-79
2022/05/05 09:42:40;;;;;;;10.60;5.93;;;20.10;85.60;;;;;;5050721;28;20056;-81
2022/05/05 09:45:12;;;;;;;8.15;6.05;;;20.10;84.80;;;;;;5048687;28;20104;-80
2022/05/05 09:47:39;;;;;;;8.55;6.05;;;20.10;84.40;;;;;;5049799;28;20028;-81
2022/05/05 09:50:06;;;;;;;10.82;5.60;;;20.10;84.50;;;;;;5047661;28;20033;-80
2022/05/05 09:58:08;;;;;;;12.45;5.68;;;20.40;82.90;;;;;;5036535;28;20152;-79
2022/05/05 10:01:35;;;;;;;9.38;5.47;;;20.40;84.20;;;;;;5047950;28;20071;-80
2022/05/05 10:04:00;;;;;;;9.00;5.63;;;20.50;83.70;;;;;;5036527;28;20057;-82
2022/05/05 10:06:41;;;;;;;7.80;5.05;;;20.50;81.20;;;;;;5037237;28;20160;-81
2022/05/05 10:09:09;;;;;;;6.35;4.57;;;20.50;80.00;;;;;;5047675;28;20397;-80
2022/05/05 10:11:35;;;;;;;9.80;5.35;;;20.50;80.00;;;;;;5048685;28;20501;-80
2022/05/05 10:14:03;;;;;;;8.68;4.72;;;20.60;81.90;;;;;;5049595;28;20044;-81
2022/05/05 10:16:32;;;;;;;6.25;4.35;;;20.90;81.60;;;;;;5047849;28;20032;-80
2022/05/05 10:18:58;;;;;;;7.68;4.10;;;21.10;75.70;;;;;;5036137;28;20615;-81
2022/05/05 10:22:13;;;;;;;6.95;4.40;;;21.10;74.20;;;;;;5044522;28;20040;-79
2022/05/05 10:24:43;;;;;;;8.40;4.90;;;21.10;75.80;;;;;;5036755;28;20072;-81
2022/05/05 10:27:10;;;;;;;8.10;4.75;;;21.10;76.80;;;;;;5031284;28;20495;-79
2022/05/05 10:29:40;;;;;;;12.55;5.75;;;21.30;77.70;;;;;;5043785;28;20027;-80
2022/05/05 10:32:07;;;;;;;11.75;5.65;;;21.50;77.60;;;;;;5048848;28;20042;-77
2022/05/05 10:34:33;;;;;;;10.23;5.82;;;21.70;77.40;;;;;;5048809;28;20017;-79
2022/05/05 10:37:01;;;;;;;18.65;8.23;;;21.70;75.00;;;;;;5047878;28;20032;-78
2022/05/05 10:39:43;;;;;;;10.93;6.88;;;21.70;74.20;;;;;;5049071;28;20021;-79
2022/05/05 10:42:20;;;;;;;15.27;6.78;;;21.60;74.60;;;;;;5047520;28;20057;-79
2022/05/05 10:45:12;;;;;;;6.65;5.03;;;21.40;75.10;;;;;;5048507;28;20200;-80
2022/05/05 10:47:50;;;;;;;8.95;5.45;;;21.50;77.60;;;;;;5040703;28;20029;-80
2022/05/05 10:50:39;;;;;;;8.32;4.85;;;21.70;74.90;;;;;;5048928;28;20039;-81
2022/05/05 10:53:06;;;;;;;9.13;5.55;;;21.90;74.50;;;;;;5045202;28;20037;-80
2022/05/05 10:55:32;;;;;;;8.30;5.40;;;21.80;72.40;;;;;;5032341;28;20021;-81
2022/05/05 10:57:58;;;;;;;7.90;4.88;;;21.50;71.90;;;;;;5045666;28;20029;-80
2022/05/05 11:00:24;;;;;;;7.30;5.32;;;21.40;72.40;;;;;;5039070;28;20096;-81
2022/05/05 11:03:00;;;;;;;10.35;6.28;;;21.10;71.90;;;;;;5041515;28;20583;-81
2022/05/05 11:05:30;;;;;;;9.20;5.72;;;20.90;75.00;;;;;;5039719;28;20116;-80
2022/05/05 11:08:08;;;;;;;7.85;6.07;;;20.90;74.90;;;;;;5032169;28;20500;-81
2022/05/05 11:13:37;;;;;;;9.20;5.38;;;20.70;73.60;;;;;;5030786;28;20225;-81
2022/05/05 11:22:11;;;;;;;11.10;6.68;;;20.70;74.20;;;;;;5044604;28;20595;-81
2022/05/05 11:24:38;;;;;;;12.52;6.25;;;20.50;74.90;;;;;;5042335;28;20420;-81
2022/05/05 11:27:09;;;;;;;12.43;6.68;;;20.40;76.30;;;;;;5039810;28;20552;-80
2022/05/05 11:29:35;;;;;;;12.20;5.88;;;20.40;75.30;;;;;;5028008;28;20096;-81
2022/05/05 11:32:02;;;;;;;14.70;5.97;;;20.30;75.70;;;;;;5026075;28;20163;-80
2022/05/05 11:34:39;;;;;;;10.23;5.38;;;20.40;76.60;;;;;;5041948;28;20029;-81
2022/05/05 11:37:07;;;;;;;13.13;5.63;;;20.60;75.80;;;;;;5041690;28;20351;-80
2022/05/05 11:39:34;;;;;;;7.82;6.10;;;21.00;78.20;;;;;;5032845;28;20505;-80
2022/05/05 11:42:04;;;;;;;9.05;6.18;;;21.40;73.30;;;;;;5049428;28;20492;-81
2022/05/05 11:44:29;;;;;;;10.07;5.70;;;21.60;70.80;;;;;;5047647;28;20500;-80
2022/05/05 11:46:57;;;;;;;14.30;6.38;;;21.60;71.40;;;;;;5031771;28;20030;-79
2022/05/05 11:49:25;;;;;;;9.77;6.55;;;21.50;72.00;;;;;;5050062;28;20052;-79
2022/05/05 11:51:51;;;;;;;10.80;5.82;;;21.40;72.00;;;;;;5036923;28;20393;-79
2022/05/05 11:54:26;;;;;;;13.18;7.80;;;21.50;72.60;;;;;;5047614;28;20476;-81
2022/05/05 11:56:53;;;;;;;10.48;6.88;;;21.70;70.80;;;;;;5051262;28;20021;-81
2022/05/05 12:02:17;;;;;;;12.93;6.55;;;21.40;71.00;;;;;;5051277;28;20078;-81
2022/05/05 12:04:49;;;;;;;10.90;6.18;;;21.30;70.90;;;;;;5052158;28;20139;-82
2022/05/05 12:07:20;;;;;;;9.25;6.03;;;21.10;71.20;;;;;;5033619;28;20037;-81
2022/05/05 12:09:47;;;;;;;9.25;6.00;;;21.20;70.90;;;;;;5046823;28;20589;-80
2022/05/05 12:12:26;;;;;;;10.15;6.07;;;21.10;68.50;;;;;;5041753;28;20033;-81
2022/05/05 12:14:55;;;;;;;12.10;6.45;;;21.00;71.00;;;;;;5039772;28;20017;-80
2022/05/05 12:17:27;;;;;;;9.13;5.68;;;21.20;69.10;;;;;;5046944;28;20024;-81
2022/05/05 12:19:55;;;;;;;8.30;6.10;;;21.30;69.70;;;;;;5030363;28;20378;-80
2022/05/05 12:22:26;;;;;;;9.93;5.68;;;21.40;69.60;;;;;;5030462;28;20128;-80
2022/05/05 12:24:52;;;;;;;10.27;5.68;;;21.40;69.50;;;;;;5035433;28;20075;-81
2022/05/05 12:27:22;;;;;;;11.25;6.28;;;21.40;68.50;;;;;;5051104;28;20037;-81
2022/05/05 12:29:48;;;;;;;7.70;5.75;;;21.40;67.50;;;;;;5045064;28;20024;-81
2022/05/05 12:32:16;;;;;;;13.95;6.47;;;21.40;68.20;;;;;;5031131;28;20029;-80
2022/05/05 12:34:42;;;;;;;11.48;5.95;;;21.20;68.80;;;;;;5034823;28;20116;-81
2022/05/05 12:37:09;;;;;;;9.63;5.93;;;21.10;67.80;;;;;;5032713;28;20045;-80
2022/05/05 12:39:34;;;;;;;8.23;5.30;;;21.10;70.00;;;;;;5036812;28;20034;-80
2022/05/05 12:42:00;;;;;;;7.10;4.88;;;21.10;69.90;;;;;;5029494;28;20033;-81
2022/05/05 12:44:33;;;;;;;9.82;5.43;;;21.20;67.40;;;;;;5034029;28;20028;-81
2022/05/05 12:47:05;;;;;;;10.05;6.07;;;21.30;67.80;;;;;;5050625;28;20062;-81
2022/05/05 12:49:38;;;;;;;10.13;5.50;;;21.20;66.90;;;;;;5051125;28;20036;-81
2022/05/05 12:52:05;;;;;;;9.75;5.05;;;20.90;67.30;;;;;;5050799;28;20040;-80
2022/05/05 13:00:00;;;;;;;9.75;5.13;;;20.80;66.00;;;;;;5050616;28;20421;-81
2022/05/05 13:02:26;;;;;;;9.68;4.35;;;21.00;67.60;;;;;;5048892;28;20021;-81
2022/05/05 13:04:52;;;;;;;8.68;5.05;;;21.10;66.60;;;;;;5049980;28;20100;-80
2022/05/05 13:07:18;;;;;;;8.27;4.40;;;21.30;63.60;;;;;;5049810;28;20541;-80
2022/05/05 13:09:44;;;;;;;8.38;4.55;;;21.50;64.20;;;;;;5048072;28;20086;-79
2022/05/05 13:12:10;;;;;;;8.10;5.18;;;21.70;66.70;;;;;;5042837;28;20429;-80
2022/05/05 13:14:36;;;;;;;7.03;5.25;;;21.90;67.50;;;;;;5041044;28;20047;-80
2022/05/05 13:17:03;;;;;;;6.47;4.97;;;22.00;64.00;;;;;;5049900;28;20025;-80
2022/05/05 13:19:29;;;;;;;11.75;4.95;;;22.30;65.50;;;;;;5033232;28;20029;-80
2022/05/05 13:21:55;;;;;;;4.82;4.15;;;22.50;63.60;;;;;;5040439;28;20031;-79
2022/05/05 13:24:20;;;;;;;6.57;3.95;;;22.60;62.70;;;;;;5050386;28;20040;-80